sensor_id;sensor_type;location;lat;lon;timestamp;pressure;altitude;pressure_sealevel;temperature;humidity
48800;BME280;34611;47.964;7.982;2023-11-18T00:01:17;97651.00;;;13.48;66.63
48800;BME280;34611;47.964;7.982;2023-11-18T00:08:20;97646.63;;;13.48;66.56
48800;BME280;34611;47.964;7.982;2023-11-18T00:15:20;97644.81;;;13.49;66.47
48800;BME280;34611;47.964;7.982;2023-11-18T00:22:20;97643.84;;;13.50;66.66
48800;BME280;34611;47.964;7.982;2023-11-18T00:29:20;97651.84;;;13.48;66.63
48800;BME280;34611;47.964;7.982;2023-11-18T00:36:21;97656.22;;;13.48;66.52
48800;BME280;34611;47.964;7.982;2023-11-18T00:43:21;97649.22;;;13.48;66.68
48800;BME280;34611;47.964;7.982;2023-11-18T00:50:22;97653.59;;;13.48;66.72
48800;BME280;34611;47.964;7.982;2023-11-18T00:57:23;97658.00;;;13.47;66.51
48800;BME280;34611;47.964;7.982;2023-11-18T01:04:23;97639.72;;;13.47;66.63
48800;BME280;34611;47.964;7.982;2023-11-18T01:11:23;97643.16;;;13.48;66.53
48800;BME280;34611;47.964;7.982;2023-11-18T01:18:24;97644.13;;;13.47;66.56
48800;BME280;34611;47.964;7.982;2023-11-18T01:25:24;97659.69;;;13.48;66.53
48800;BME280;34611;47.964;7.982;2023-11-18T01:32:25;97656.22;;;13.48;66.72
48800;BME280;34611;47.964;7.982;2023-11-18T01:39:25;97656.22;;;13.48;66.57
48800;BME280;34611;47.964;7.982;2023-11-18T01:46:27;97651.00;;;13.48;66.53
48800;BME280;34611;47.964;7.982;2023-11-18T01:53:29;97649.34;;;13.47;66.62
48800;BME280;34611;47.964;7.982;2023-11-18T02:00:31;97643.16;;;13.48;66.52
48800;BME280;34611;47.964;7.982;2023-11-18T02:07:31;97647.56;;;13.47;66.62
48800;BME280;34611;47.964;7.982;2023-11-18T02:14:33;97636.28;;;13.47;66.54
48800;BME280;34611;47.964;7.982;2023-11-18T02:21:37;97643.16;;;13.48;66.44
48800;BME280;34611;47.964;7.982;2023-11-18T02:28:38;97648.38;;;13.48;66.62
48800;BME280;34611;47.964;7.982;2023-11-18T02:35:41;97650.16;;;13.47;66.53
48800;BME280;34611;47.964;7.982;2023-11-18T02:42:48;97636.16;;;13.48;66.57
48800;BME280;34611;47.964;7.982;2023-11-18T02:49:53;97630.09;;;13.48;66.48
48800;BME280;34611;47.964;7.982;2023-11-18T02:56:53;97636.16;;;13.48;66.71
48800;BME280;34611;47.964;7.982;2023-11-18T03:03:55;97636.28;;;13.47;66.44
48800;BME280;34611;47.964;7.982;2023-11-18T03:10:55;97633.69;;;13.47;66.50
48800;BME280;34611;47.964;7.982;2023-11-18T03:17:57;97615.41;;;13.47;66.59
48800;BME280;34611;47.964;7.982;2023-11-18T03:24:59;97611.00;;;13.47;66.49
48800;BME280;34611;47.964;7.982;2023-11-18T03:32:00;97638.91;;;13.47;66.59
48800;BME280;34611;47.964;7.982;2023-11-18T03:39:00;97646.75;;;13.47;66.53
48800;BME280;34611;47.964;7.982;2023-11-18T03:46:01;97644.94;;;13.47;66.54
48800;BME280;34611;47.964;7.982;2023-11-18T03:53:02;97649.22;;;13.48;66.48
48800;BME280;34611;47.964;7.982;2023-11-18T04:00:03;97635.31;;;13.48;66.63
48800;BME280;34611;47.964;7.982;2023-11-18T04:07:10;97636.28;;;13.47;66.67
48800;BME280;34611;47.964;7.982;2023-11-18T04:14:11;97640.53;;;13.48;66.64
48800;BME280;34611;47.964;7.982;2023-11-18T04:21:12;97643.16;;;13.48;66.45
48800;BME280;34611;47.964;7.982;2023-11-18T04:28:13;97648.38;;;13.48;66.55
48800;BME280;34611;47.964;7.982;2023-11-18T04:35:13;97660.75;;;13.46;66.63
48800;BME280;34611;47.964;7.982;2023-11-18T04:42:13;97667.63;;;13.47;66.48
48800;BME280;34611;47.964;7.982;2023-11-18T04:49:15;97647.56;;;13.47;66.46
48800;BME280;34611;47.964;7.982;2023-11-18T04:56:16;97639.72;;;13.47;66.62
48800;BME280;34611;47.964;7.982;2023-11-18T05:03:18;97613.72;;;13.46;66.51
48800;BME280;34611;47.964;7.982;2023-11-18T05:10:18;97624.06;;;13.47;66.56
48800;BME280;34611;47.964;7.982;2023-11-18T05:17:18;97610.28;;;13.45;66.45
48800;BME280;34611;47.964;7.982;2023-11-18T05:24:19;97608.50;;;13.46;66.42
48800;BME280;34611;47.964;7.982;2023-11-18T05:31:19;97612.78;;;13.47;66.47
48800;BME280;34611;47.964;7.982;2023-11-18T05:38:20;97611.13;;;13.46;66.59
48800;BME280;34611;47.964;7.982;2023-11-18T05:45:21;97613.72;;;13.46;66.61
48800;BME280;34611;47.964;7.982;2023-11-18T05:52:28;97592.00;;;13.45;66.55
48800;BME280;34611;47.964;7.982;2023-11-18T05:59:28;97592.00;;;13.45;66.40
48800;BME280;34611;47.964;7.982;2023-11-18T06:06:28;97590.19;;;13.25;64.73
48800;BME280;34611;47.964;7.982;2023-11-18T06:13:29;97588.25;;;13.17;63.44
48800;BME280;34611;47.964;7.982;2023-11-18T06:20:29;97581.63;;;13.13;62.79
48800;BME280;34611;47.964;7.982;2023-11-18T06:27:29;97602.34;;;13.14;63.04
48800;BME280;34611;47.964;7.982;2023-11-18T06:34:30;97597.13;;;13.14;63.43
48800;BME280;34611;47.964;7.982;2023-11-18T06:41:30;97589.44;;;13.13;63.27
48800;BME280;34611;47.964;7.982;2023-11-18T06:48:33;97588.63;;;13.12;63.18
48800;BME280;34611;47.964;7.982;2023-11-18T06:55:35;97588.75;;;13.11;63.31
48800;BME280;34611;47.964;7.982;2023-11-18T07:02:36;97596.56;;;13.11;63.24
48800;BME280;34611;47.964;7.982;2023-11-18T07:09:36;97611.66;;;13.07;63.22
48800;BME280;34611;47.964;7.982;2023-11-18T07:16:37;97618.78;;;13.05;62.96
48800;BME280;34611;47.964;7.982;2023-11-18T07:23:38;97624.13;;;13.04;62.76
48800;BME280;34611;47.964;7.982;2023-11-18T07:30:38;97618.06;;;13.03;62.64
48800;BME280;34611;47.964;7.982;2023-11-18T07:37:38;97610.38;;;13.02;62.87
48800;BME280;34611;47.964;7.982;2023-11-18T07:44:39;97596.50;;;13.01;62.75
48800;BME280;34611;47.964;7.982;2023-11-18T07:51:39;97610.63;;;12.99;62.57
48800;BME280;34611;47.964;7.982;2023-11-18T07:58:42;97607.03;;;13.00;62.81
48800;BME280;34611;47.964;7.982;2023-11-18T08:05:45;97614.16;;;12.98;62.54
48800;BME280;34611;47.964;7.982;2023-11-18T08:12:45;97599.59;;;12.95;62.45
48800;BME280;34611;47.964;7.982;2023-11-18T08:19:47;97581.72;;;12.90;62.25
48800;BME280;34611;47.964;7.982;2023-11-18T08:26:47;97578.53;;;12.87;61.78
48800;BME280;34611;47.964;7.982;2023-11-18T08:33:47;97561.34;;;12.84;61.74
48800;BME280;34611;47.964;7.982;2023-11-18T08:40:50;97557.91;;;12.84;61.60
48800;BME280;34611;47.964;7.982;2023-11-18T08:47:51;97556.75;;;12.98;62.48
48800;BME280;34611;47.964;7.982;2023-11-18T08:54:53;97551.03;;;13.04;62.82
48800;BME280;34611;47.964;7.982;2023-11-18T09:02:20;97554.34;;;13.06;63.15
48800;BME280;34611;47.964;7.982;2023-11-18T09:09:23;97535.13;;;13.07;63.60
48800;BME280;34611;47.964;7.982;2023-11-18T09:16:27;97527.88;;;13.10;63.62
48800;BME280;34611;47.964;7.982;2023-11-18T09:23:30;97532.13;;;13.11;63.74
48800;BME280;34611;47.964;7.982;2023-11-18T09:30:31;97539.84;;;13.13;63.96
48800;BME280;34611;47.964;7.982;2023-11-18T09:37:33;97551.94;;;13.14;63.96
48800;BME280;34611;47.964;7.982;2023-11-18T09:44:35;97556.22;;;13.15;64.02
48800;BME280;34611;47.964;7.982;2023-11-18T09:51:38;97555.25;;;13.16;64.23
48800;BME280;34611;47.964;7.982;2023-11-18T09:58:53;97561.28;;;13.16;64.29
48800;BME280;34611;47.964;7.982;2023-11-18T10:05:57;97561.28;;;13.16;64.28
48800;BME280;34611;47.964;7.982;2023-11-18T10:12:57;97554.16;;;13.19;64.38
48800;BME280;34611;47.964;7.982;2023-11-18T10:19:58;97556.75;;;13.19;64.39
48800;BME280;34611;47.964;7.982;2023-11-18T10:27:12;97555.94;;;13.18;64.45
48800;BME280;34611;47.964;7.982;2023-11-18T10:34:14;97560.22;;;13.19;64.62
48800;BME280;34611;47.964;7.982;2023-11-18T10:41:18;97550.59;;;13.20;64.41
48800;BME280;34611;47.964;7.982;2023-11-18T10:48:18;97561.88;;;13.20;64.62
48800;BME280;34611;47.964;7.982;2023-11-18T10:55:20;97557.47;;;13.21;64.52
48800;BME280;34611;47.964;7.982;2023-11-18T11:02:20;97550.47;;;13.21;64.49
48800;BME280;34611;47.964;7.982;2023-11-18T11:09:24;97548.69;;;13.22;64.70
48800;BME280;34611;47.964;7.982;2023-11-18T11:16:28;97542.66;;;13.21;64.68
48800;BME280;34611;47.964;7.982;2023-11-18T11:23:41;97546.91;;;13.22;64.79
48800;BME280;34611;47.964;7.982;2023-11-18T11:30:50;97523.41;;;13.22;64.66
48800;BME280;34611;47.964;7.982;2023-11-18T11:37:56;97519.00;;;13.23;64.83
48800;BME280;34611;47.964;7.982;2023-11-18T11:45:04;97502.50;;;13.22;64.76
48800;BME280;34611;47.964;7.982;2023-11-18T11:52:15;97507.75;;;13.22;64.67
48800;BME280;34611;47.964;7.982;2023-11-18T11:59:53;97503.34;;;13.23;64.63
48800;BME280;34611;47.964;7.982;2023-11-18T12:06:55;97487.66;;;13.23;64.73
48800;BME280;34611;47.964;7.982;2023-11-18T12:14:03;97492.53;;;13.27;65.07
48800;BME280;34611;47.964;7.982;2023-11-18T12:21:12;97483.84;;;13.27;64.96
48800;BME280;34611;47.964;7.982;2023-11-18T12:28:33;97481.97;;;13.29;65.04
48800;BME280;34611;47.964;7.982;2023-11-18T12:42:56;97455.13;;;13.27;64.96
48800;BME280;34611;47.964;7.982;2023-11-18T12:49:58;97454.19;;;13.28;64.90
48800;BME280;34611;47.964;7.982;2023-11-18T12:57:00;97450.75;;;13.27;64.88
48800;BME280;34611;47.964;7.982;2023-11-18T13:04:01;97437.69;;;13.27;65.02
48800;BME280;34611;47.964;7.982;2023-11-18T13:11:02;97438.44;;;13.29;64.95
48800;BME280;34611;47.964;7.982;2023-11-18T13:18:04;97428.91;;;13.28;65.02
48800;BME280;34611;47.964;7.982;2023-11-18T13:25:07;97408.84;;;13.29;64.90
48800;BME280;34611;47.964;7.982;2023-11-18T13:32:10;97394.94;;;13.28;64.96
48800;BME280;34611;47.964;7.982;2023-11-18T13:39:19;97381.91;;;13.28;64.89
48800;BME280;34611;47.964;7.982;2023-11-18T13:46:21;97354.97;;;13.28;64.91
48800;BME280;34611;47.964;7.982;2023-11-18T13:53:21;97341.81;;;13.29;65.08
48800;BME280;34611;47.964;7.982;2023-11-18T14:00:22;97320.94;;;13.29;64.95
48800;BME280;34611;47.964;7.982;2023-11-18T14:07:23;97307.03;;;13.29;65.08
48800;BME280;34611;47.964;7.982;2023-11-18T14:14:24;97308.78;;;13.28;65.16
48800;BME280;34611;47.964;7.982;2023-11-18T14:21:25;97293.13;;;13.28;64.93
48800;BME280;34611;47.964;7.982;2023-11-18T14:28:25;97284.38;;;13.29;65.04
48800;BME280;34611;47.964;7.982;2023-11-18T14:35:27;97284.38;;;13.29;65.12
48800;BME280;34611;47.964;7.982;2023-11-18T14:42:29;97272.97;;;13.30;64.96
48800;BME280;34611;47.964;7.982;2023-11-18T14:49:29;97282.59;;;13.30;65.01
48800;BME280;34611;47.964;7.982;2023-11-18T14:56:30;97263.50;;;13.29;65.05
48800;BME280;34611;47.964;7.982;2023-11-18T15:03:30;97270.47;;;13.29;64.98
48800;BME280;34611;47.964;7.982;2023-11-18T15:10:31;97282.59;;;13.30;64.97
48800;BME280;34611;47.964;7.982;2023-11-18T15:17:31;97265.13;;;13.30;65.20
48800;BME280;34611;47.964;7.982;2023-11-18T15:24:31;97266.09;;;13.29;65.12
48800;BME280;34611;47.964;7.982;2023-11-18T15:31:34;97260.88;;;13.29;65.05
48800;BME280;34611;47.964;7.982;2023-11-18T15:38:34;97259.09;;;13.30;65.36
48800;BME280;34611;47.964;7.982;2023-11-18T15:45:35;97259.91;;;13.30;65.22
48800;BME280;34611;47.964;7.982;2023-11-18T15:52:35;97278.31;;;13.29;65.04
48800;BME280;34611;47.964;7.982;2023-11-18T15:59:36;97270.34;;;13.30;65.11
48800;BME280;34611;47.964;7.982;2023-11-18T16:06:36;97285.19;;;13.30;65.20
48800;BME280;34611;47.964;7.982;2023-11-18T16:13:37;97289.44;;;13.31;65.11
48800;BME280;34611;47.964;7.982;2023-11-18T16:20:37;97288.63;;;13.30;65.08
48800;BME280;34611;47.964;7.982;2023-11-18T16:27:37;97285.19;;;13.30;65.27
48800;BME280;34611;47.964;7.982;2023-11-18T16:34:38;97260.88;;;13.29;65.13
48800;BME280;34611;47.964;7.982;2023-11-18T16:41:38;97263.34;;;13.31;65.21
48800;BME280;34611;47.964;7.982;2023-11-18T16:48:40;97265.13;;;13.30;65.27
48800;BME280;34611;47.964;7.982;2023-11-18T16:55:40;97250.28;;;13.31;65.06
48800;BME280;34611;47.964;7.982;2023-11-18T17:02:44;97216.50;;;13.29;65.12
48800;BME280;34611;47.964;7.982;2023-11-18T17:09:44;97218.13;;;13.30;65.40
48800;BME280;34611;47.964;7.982;2023-11-18T17:16:45;97209.47;;;13.30;65.07
48800;BME280;34611;47.964;7.982;2023-11-18T17:23:46;97197.25;;;13.30;65.27
48800;BME280;34611;47.964;7.982;2023-11-18T17:30:47;97198.91;;;13.31;65.10
48800;BME280;34611;47.964;7.982;2023-11-18T17:37:47;97176.34;;;13.30;65.26
48800;BME280;34611;47.964;7.982;2023-11-18T17:44:48;97143.22;;;13.31;65.32
48800;BME280;34611;47.964;7.982;2023-11-18T17:51:48;97146.69;;;13.31;65.24
48800;BME280;34611;47.964;7.982;2023-11-18T17:58:49;97167.56;;;13.31;65.29
48800;BME280;34611;47.964;7.982;2023-11-18T18:05:51;97171.13;;;13.30;65.11
48800;BME280;34611;47.964;7.982;2023-11-18T18:12:51;97166.72;;;13.31;65.32
48800;BME280;34611;47.964;7.982;2023-11-18T18:19:52;97181.56;;;13.30;65.21
48800;BME280;34611;47.964;7.982;2023-11-18T18:26:52;97183.25;;;13.31;65.31
48800;BME280;34611;47.964;7.982;2023-11-18T18:33:52;97177.16;;;13.31;65.16
48800;BME280;34611;47.964;7.982;2023-11-18T18:40:53;97163.16;;;13.42;65.09
48800;BME280;34611;47.964;7.982;2023-11-18T18:47:55;97147.50;;;13.32;65.31
48800;BME280;34611;47.964;7.982;2023-11-18T18:54:56;97158.75;;;13.32;65.29
48800;BME280;34611;47.964;7.982;2023-11-18T19:01:56;97155.34;;;13.32;65.53
48800;BME280;34611;47.964;7.982;2023-11-18T19:08:57;97159.75;;;13.31;65.28
48800;BME280;34611;47.964;7.982;2023-11-18T19:15:57;97145.84;;;13.31;65.41
48800;BME280;34611;47.964;7.982;2023-11-18T19:22:58;97146.69;;;13.31;65.32
48800;BME280;34611;47.964;7.982;2023-11-18T19:29:58;97140.63;;;13.31;65.19
48800;BME280;34611;47.964;7.982;2023-11-18T19:36:59;97135.41;;;13.31;65.48
48800;BME280;34611;47.964;7.982;2023-11-18T19:43:59;97125.13;;;13.29;65.26
48800;BME280;34611;47.964;7.982;2023-11-18T19:50:59;97128.53;;;13.30;65.35
48800;BME280;34611;47.964;7.982;2023-11-18T19:58:01;97122.50;;;13.29;65.27
48800;BME280;34611;47.964;7.982;2023-11-18T20:05:03;97106.84;;;13.29;65.41
48800;BME280;34611;47.964;7.982;2023-11-18T20:12:04;97107.66;;;13.30;65.24
48800;BME280;34611;47.964;7.982;2023-11-18T20:19:04;97082.50;;;13.29;65.45
48800;BME280;34611;47.964;7.982;2023-11-18T20:26:04;97061.59;;;13.29;65.23
48800;BME280;34611;47.964;7.982;2023-11-18T20:33:05;97050.31;;;13.28;65.39
48800;BME280;34611;47.964;7.982;2023-11-18T20:40:05;97038.13;;;13.29;65.44
48800;BME280;34611;47.964;7.982;2023-11-18T20:47:10;97018.19;;;13.28;65.25
48800;BME280;34611;47.964;7.982;2023-11-18T20:54:10;97004.16;;;13.29;65.17
48800;BME280;34611;47.964;7.982;2023-11-18T21:01:10;96998.94;;;13.29;65.34
48800;BME280;34611;47.964;7.982;2023-11-18T21:08:13;96990.28;;;13.28;65.38
48800;BME280;34611;47.964;7.982;2023-11-18T21:15:16;97001.56;;;13.29;65.27
48800;BME280;34611;47.964;7.982;2023-11-18T21:22:16;97011.16;;;13.28;65.44
48800;BME280;34611;47.964;7.982;2023-11-18T21:29:18;97008.53;;;13.28;65.39
48800;BME280;34611;47.964;7.982;2023-11-18T21:36:18;97026.81;;;13.28;65.46
48800;BME280;34611;47.964;7.982;2023-11-18T21:43:19;97020.78;;;13.28;65.30
48800;BME280;34611;47.964;7.982;2023-11-18T21:50:20;96997.28;;;13.28;65.28
48800;BME280;34611;47.964;7.982;2023-11-18T21:57:21;97011.16;;;13.28;65.28
48800;BME280;34611;47.964;7.982;2023-11-18T22:04:21;97001.69;;;13.27;65.47
48800;BME280;34611;47.964;7.982;2023-11-18T22:11:24;96995.50;;;13.28;65.52
48800;BME280;34611;47.964;7.982;2023-11-18T22:18:24;97001.69;;;13.27;65.34
48800;BME280;34611;47.964;7.982;2023-11-18T22:25:26;96979.00;;;13.28;65.44
48800;BME280;34611;47.964;7.982;2023-11-18T22:32:27;96985.06;;;13.28;65.39
48800;BME280;34611;47.964;7.982;2023-11-18T22:39:27;96973.78;;;13.28;65.46
48800;BME280;34611;47.964;7.982;2023-11-18T22:46:28;96969.38;;;13.28;65.46
48800;BME280;34611;47.964;7.982;2023-11-18T22:53:29;96968.56;;;13.28;65.25
48800;BME280;34611;47.964;7.982;2023-11-18T23:00:29;96966.78;;;13.28;65.61
48800;BME280;34611;47.964;7.982;2023-11-18T23:07:39;96941.66;;;13.27;65.49
48800;BME280;34611;47.964;7.982;2023-11-18T23:14:44;96904.25;;;13.27;65.49
48800;BME280;34611;47.964;7.982;2023-11-18T23:21:44;96896.28;;;13.28;65.36
48800;BME280;34611;47.964;7.982;2023-11-18T23:28:44;96883.38;;;13.27;65.47
48800;BME280;34611;47.964;7.982;2023-11-18T23:35:45;96874.59;;;13.28;65.61
48800;BME280;34611;47.964;7.982;2023-11-18T23:42:45;96877.19;;;13.28;65.40
48800;BME280;34611;47.964;7.982;2023-11-18T23:49:45;96858.09;;;13.27;65.47
48800;BME280;34611;47.964;7.982;2023-11-18T23:56:45;96848.47;;;13.28;65.45
